sensor_id;sensor_type;location;lat;lon;timestamp;noise_LAeq;noise_LA_min;noise_LA_max;noise_LA01;noise_LA95
58303;Laerm;44109;52.398;7.024;2024-03-02T00:01:39;44.02;31.75;57.01;;
58303;Laerm;44109;52.398;7.024;2024-03-02T00:04:08;44.49;31.93;57.23;;
58303;Laerm;44109;52.398;7.024;2024-03-02T00:06:38;44.67;32.08;57.09;;
58303;Laerm;44109;52.398;7.024;2024-03-02T00:09:10;43.77;31.70;56.87;;
58303;Laerm;44109;52.398;7.024;2024-03-02T00:11:39;44.57;32.11;57.14;;
58303;Laerm;44109;52.398;7.024;2024-03-02T00:14:07;44.00;31.64;57.34;;
58303;Laerm;44109;52.398;7.024;2024-03-02T00:16:37;43.90;31.73;56.96;;
58303;Laerm;44109;52.398;7.024;2024-03-02T00:19:06;43.94;31.25;57.14;;
58303;Laerm;44109;52.398;7.024;2024-03-02T00:21:35;44.11;31.90;57.09;;
58303;Laerm;44109;52.398;7.024;2024-03-02T00:24:17;44.32;32.08;57.01;;
58303;Laerm;44109;52.398;7.024;2024-03-02T00:26:47;43.76;32.10;56.77;;
58303;Laerm;44109;52.398;7.024;2024-03-02T00:29:16;44.09;32.51;57.04;;
58303;Laerm;44109;52.398;7.024;2024-03-02T00:31:47;44.07;32.04;57.21;;
58303;Laerm;44109;52.398;7.024;2024-03-02T00:34:17;46.12;33.47;57.15;;
58303;Laerm;44109;52.398;7.024;2024-03-02T00:36:46;43.90;31.72;56.65;;
58303;Laerm;44109;52.398;7.024;2024-03-02T00:39:16;43.83;32.08;57.16;;
58303;Laerm;44109;52.398;7.024;2024-03-02T00:41:44;44.18;31.75;57.15;;
58303;Laerm;44109;52.398;7.024;2024-03-02T00:44:15;44.74;32.66;57.39;;
58303;Laerm;44109;52.398;7.024;2024-03-02T00:46:44;44.17;32.19;57.13;;
58303;Laerm;44109;52.398;7.024;2024-03-02T00:49:21;45.53;34.42;56.87;;
58303;Laerm;44109;52.398;7.024;2024-03-02T00:51:52;46.78;32.56;59.05;;
58303;Laerm;44109;52.398;7.024;2024-03-02T00:54:22;44.25;32.78;57.29;;
58303;Laerm;44109;52.398;7.024;2024-03-02T00:56:51;45.45;33.58;57.15;;
58303;Laerm;44109;52.398;7.024;2024-03-02T00:59:19;45.19;33.30;58.81;;
58303;Laerm;44109;52.398;7.024;2024-03-02T01:01:56;44.07;32.45;57.03;;
58303;Laerm;44109;52.398;7.024;2024-03-02T01:04:31;44.15;32.12;56.71;;
58303;Laerm;44109;52.398;7.024;2024-03-02T01:06:59;44.07;32.07;56.80;;
58303;Laerm;44109;52.398;7.024;2024-03-02T01:09:28;44.21;32.17;57.08;;
58303;Laerm;44109;52.398;7.024;2024-03-02T01:11:57;44.39;32.29;60.92;;
58303;Laerm;44109;52.398;7.024;2024-03-02T01:14:25;44.07;32.13;57.01;;
58303;Laerm;44109;52.398;7.024;2024-03-02T01:17:00;45.38;32.49;57.91;;
58303;Laerm;44109;52.398;7.024;2024-03-02T01:19:32;44.29;32.76;57.03;;
58303;Laerm;44109;52.398;7.024;2024-03-02T01:22:00;44.48;32.04;57.17;;
58303;Laerm;44109;52.398;7.024;2024-03-02T01:24:28;44.24;31.97;56.90;;
58303;Laerm;44109;52.398;7.024;2024-03-02T01:26:56;45.03;31.80;57.28;;
58303;Laerm;44109;52.398;7.024;2024-03-02T01:29:24;45.06;31.61;62.65;;
58303;Laerm;44109;52.398;7.024;2024-03-02T01:31:54;44.64;32.12;57.24;;
58303;Laerm;44109;52.398;7.024;2024-03-02T01:34:23;44.36;31.97;56.92;;
58303;Laerm;44109;52.398;7.024;2024-03-02T01:36:52;44.53;31.61;56.77;;
58303;Laerm;44109;52.398;7.024;2024-03-02T01:39:21;44.58;32.05;56.93;;
58303;Laerm;44109;52.398;7.024;2024-03-02T01:41:48;45.75;32.56;63.92;;
58303;Laerm;44109;52.398;7.024;2024-03-02T01:44:16;46.22;32.33;60.01;;
58303;Laerm;44109;52.398;7.024;2024-03-02T01:46:44;44.68;32.18;56.93;;
58303;Laerm;44109;52.398;7.024;2024-03-02T01:49:12;45.19;31.91;63.47;;
58303;Laerm;44109;52.398;7.024;2024-03-02T01:51:41;44.95;32.36;59.91;;
58303;Laerm;44109;52.398;7.024;2024-03-02T01:54:10;44.59;32.72;57.07;;
58303;Laerm;44109;52.398;7.024;2024-03-02T01:56:38;44.42;31.68;56.94;;
58303;Laerm;44109;52.398;7.024;2024-03-02T01:59:06;44.85;31.85;61.35;;
58303;Laerm;44109;52.398;7.024;2024-03-02T02:01:34;44.34;31.84;56.87;;
58303;Laerm;44109;52.398;7.024;2024-03-02T02:04:02;44.28;31.59;57.08;;
58303;Laerm;44109;52.398;7.024;2024-03-02T02:06:29;44.23;31.72;57.13;;
58303;Laerm;44109;52.398;7.024;2024-03-02T02:08:58;44.17;31.94;56.56;;
58303;Laerm;44109;52.398;7.024;2024-03-02T02:11:27;44.45;32.42;57.65;;
58303;Laerm;44109;52.398;7.024;2024-03-02T02:13:57;44.65;31.97;60.61;;
58303;Laerm;44109;52.398;7.024;2024-03-02T02:16:26;44.12;31.87;56.53;;
58303;Laerm;44109;52.398;7.024;2024-03-02T02:18:54;44.53;31.83;57.08;;
58303;Laerm;44109;52.398;7.024;2024-03-02T02:21:24;44.63;32.00;57.08;;
58303;Laerm;44109;52.398;7.024;2024-03-02T02:23:53;44.04;31.83;56.89;;
58303;Laerm;44109;52.398;7.024;2024-03-02T02:26:21;44.62;31.78;56.95;;
58303;Laerm;44109;52.398;7.024;2024-03-02T02:28:51;43.97;31.86;56.76;;
58303;Laerm;44109;52.398;7.024;2024-03-02T02:31:20;44.08;31.82;56.79;;
58303;Laerm;44109;52.398;7.024;2024-03-02T02:33:48;44.03;31.57;56.68;;
58303;Laerm;44109;52.398;7.024;2024-03-02T02:36:16;44.99;31.56;56.97;;
58303;Laerm;44109;52.398;7.024;2024-03-02T02:38:49;44.73;32.03;57.10;;
58303;Laerm;44109;52.398;7.024;2024-03-02T02:41:17;43.91;31.91;57.06;;
58303;Laerm;44109;52.398;7.024;2024-03-02T02:43:45;44.88;31.92;56.87;;
58303;Laerm;44109;52.398;7.024;2024-03-02T02:46:12;44.83;31.67;63.15;;
58303;Laerm;44109;52.398;7.024;2024-03-02T02:48:41;44.62;33.33;57.12;;
58303;Laerm;44109;52.398;7.024;2024-03-02T02:51:09;44.03;31.71;56.56;;
58303;Laerm;44109;52.398;7.024;2024-03-02T02:53:37;44.06;31.43;57.06;;
58303;Laerm;44109;52.398;7.024;2024-03-02T02:56:08;44.32;31.61;61.92;;
58303;Laerm;44109;52.398;7.024;2024-03-02T02:58:36;44.16;31.50;57.35;;
58303;Laerm;44109;52.398;7.024;2024-03-02T03:01:03;44.25;31.56;57.01;;
58303;Laerm;44109;52.398;7.024;2024-03-02T03:03:31;45.37;31.70;56.62;;
58303;Laerm;44109;52.398;7.024;2024-03-02T03:05:59;44.95;31.77;57.10;;
58303;Laerm;44109;52.398;7.024;2024-03-02T03:08:27;45.42;31.86;56.60;;
58303;Laerm;44109;52.398;7.024;2024-03-02T03:10:55;45.02;31.70;57.10;;
58303;Laerm;44109;52.398;7.024;2024-03-02T03:13:25;44.82;31.62;56.77;;
58303;Laerm;44109;52.398;7.024;2024-03-02T03:15:53;44.97;31.32;56.80;;
58303;Laerm;44109;52.398;7.024;2024-03-02T03:18:21;44.65;31.11;56.98;;
58303;Laerm;44109;52.398;7.024;2024-03-02T03:20:49;44.79;31.22;57.74;;
58303;Laerm;44109;52.398;7.024;2024-03-02T03:23:17;44.72;31.40;56.96;;
58303;Laerm;44109;52.398;7.024;2024-03-02T03:25:45;45.30;31.15;56.82;;
58303;Laerm;44109;52.398;7.024;2024-03-02T03:28:13;44.99;31.23;56.86;;
58303;Laerm;44109;52.398;7.024;2024-03-02T03:30:42;44.81;31.38;56.93;;
58303;Laerm;44109;52.398;7.024;2024-03-02T03:33:11;44.88;31.39;57.01;;
58303;Laerm;44109;52.398;7.024;2024-03-02T03:35:38;45.30;31.26;56.89;;
58303;Laerm;44109;52.398;7.024;2024-03-02T03:38:06;45.10;30.82;57.00;;
58303;Laerm;44109;52.398;7.024;2024-03-02T03:40:35;45.36;31.65;57.00;;
58303;Laerm;44109;52.398;7.024;2024-03-02T03:43:03;44.93;31.30;57.15;;
58303;Laerm;44109;52.398;7.024;2024-03-02T03:45:31;45.48;30.83;57.08;;
58303;Laerm;44109;52.398;7.024;2024-03-02T03:48:01;45.69;32.45;57.08;;
58303;Laerm;44109;52.398;7.024;2024-03-02T03:50:29;44.80;31.31;57.02;;
58303;Laerm;44109;52.398;7.024;2024-03-02T03:52:57;45.47;31.83;57.16;;
58303;Laerm;44109;52.398;7.024;2024-03-02T03:55:26;44.93;31.54;57.37;;
58303;Laerm;44109;52.398;7.024;2024-03-02T03:57:54;45.15;31.48;57.09;;
58303;Laerm;44109;52.398;7.024;2024-03-02T04:00:22;45.28;31.41;57.08;;
58303;Laerm;44109;52.398;7.024;2024-03-02T04:02:49;44.51;31.37;57.20;;
58303;Laerm;44109;52.398;7.024;2024-03-02T04:05:19;44.56;31.52;57.05;;
58303;Laerm;44109;52.398;7.024;2024-03-02T04:07:47;44.39;31.47;57.24;;
58303;Laerm;44109;52.398;7.024;2024-03-02T04:10:15;45.91;31.31;56.78;;
58303;Laerm;44109;52.398;7.024;2024-03-02T04:12:43;44.03;31.18;56.94;;
58303;Laerm;44109;52.398;7.024;2024-03-02T04:15:11;44.16;31.55;57.07;;
58303;Laerm;44109;52.398;7.024;2024-03-02T04:17:39;44.84;31.35;57.21;;
58303;Laerm;44109;52.398;7.024;2024-03-02T04:20:07;44.03;31.49;56.92;;
58303;Laerm;44109;52.398;7.024;2024-03-02T04:22:37;45.81;32.11;57.08;;
58303;Laerm;44109;52.398;7.024;2024-03-02T04:25:05;44.34;31.51;57.26;;
58303;Laerm;44109;52.398;7.024;2024-03-02T04:27:33;43.91;31.39;57.28;;
58303;Laerm;44109;52.398;7.024;2024-03-02T04:30:01;44.70;31.48;57.26;;
58303;Laerm;44109;52.398;7.024;2024-03-02T04:32:30;44.43;31.29;57.10;;
58303;Laerm;44109;52.398;7.024;2024-03-02T04:34:58;44.18;31.19;57.15;;
58303;Laerm;44109;52.398;7.024;2024-03-02T04:37:26;44.22;31.99;57.28;;
58303;Laerm;44109;52.398;7.024;2024-03-02T04:39:56;43.64;31.31;57.31;;
58303;Laerm;44109;52.398;7.024;2024-03-02T04:42:25;43.90;31.25;57.19;;
58303;Laerm;44109;52.398;7.024;2024-03-02T04:44:53;44.01;31.50;57.37;;
58303;Laerm;44109;52.398;7.024;2024-03-02T04:47:20;45.23;31.69;58.52;;
58303;Laerm;44109;52.398;7.024;2024-03-02T04:49:49;43.85;31.68;56.52;;
58303;Laerm;44109;52.398;7.024;2024-03-02T04:52:17;44.04;31.25;57.16;;
58303;Laerm;44109;52.398;7.024;2024-03-02T04:54:45;44.81;31.69;57.22;;
58303;Laerm;44109;52.398;7.024;2024-03-02T04:57:32;44.81;33.40;57.51;;
58303;Laerm;44109;52.398;7.024;2024-03-02T04:59:59;44.93;32.31;57.52;;
58303;Laerm;44109;52.398;7.024;2024-03-02T05:02:27;44.52;31.69;57.13;;
58303;Laerm;44109;52.398;7.024;2024-03-02T05:04:55;43.90;32.08;57.25;;
58303;Laerm;44109;52.398;7.024;2024-03-02T05:07:23;43.66;31.43;56.39;;
58303;Laerm;44109;52.398;7.024;2024-03-02T05:09:51;44.03;31.03;57.21;;
58303;Laerm;44109;52.398;7.024;2024-03-02T05:12:19;43.48;31.42;57.12;;
58303;Laerm;44109;52.398;7.024;2024-03-02T05:15:24;43.42;32.01;57.52;;
58303;Laerm;44109;52.398;7.024;2024-03-02T05:17:52;44.79;32.95;56.75;;
58303;Laerm;44109;52.398;7.024;2024-03-02T05:20:20;48.96;32.60;71.76;;
58303;Laerm;44109;52.398;7.024;2024-03-02T05:22:48;46.11;32.70;66.30;;
58303;Laerm;44109;52.398;7.024;2024-03-02T05:25:16;45.52;34.24;57.27;;
58303;Laerm;44109;52.398;7.024;2024-03-02T05:27:44;48.71;33.54;62.57;;
58303;Laerm;44109;52.398;7.024;2024-03-02T05:30:13;53.55;33.04;68.09;;
58303;Laerm;44109;52.398;7.024;2024-03-02T05:32:42;54.92;35.53;68.85;;
58303;Laerm;44109;52.398;7.024;2024-03-02T05:35:10;53.82;34.61;67.21;;
58303;Laerm;44109;52.398;7.024;2024-03-02T05:37:39;54.55;33.64;69.14;;
58303;Laerm;44109;52.398;7.024;2024-03-02T05:40:09;55.68;34.14;71.81;;
58303;Laerm;44109;52.398;7.024;2024-03-02T05:42:37;59.54;34.53;76.11;;
58303;Laerm;44109;52.398;7.024;2024-03-02T05:45:08;58.73;35.23;75.66;;
58303;Laerm;44109;52.398;7.024;2024-03-02T05:47:36;59.07;36.08;73.64;;
58303;Laerm;44109;52.398;7.024;2024-03-02T05:50:07;58.85;36.56;76.70;;
58303;Laerm;44109;52.398;7.024;2024-03-02T05:52:35;59.84;35.05;74.60;;
58303;Laerm;44109;52.398;7.024;2024-03-02T05:55:04;60.85;33.29;77.07;;
58303;Laerm;44109;52.398;7.024;2024-03-02T05:57:32;58.73;34.79;76.19;;
58303;Laerm;44109;52.398;7.024;2024-03-02T06:00:15;59.39;35.27;75.49;;
58303;Laerm;44109;52.398;7.024;2024-03-02T06:02:44;53.45;33.79;72.38;;
58303;Laerm;44109;52.398;7.024;2024-03-02T06:05:14;51.13;33.66;69.48;;
58303;Laerm;44109;52.398;7.024;2024-03-02T06:07:44;51.43;35.81;67.74;;
58303;Laerm;44109;52.398;7.024;2024-03-02T06:10:12;52.51;35.93;70.28;;
58303;Laerm;44109;52.398;7.024;2024-03-02T06:12:40;49.82;35.68;70.46;;
58303;Laerm;44109;52.398;7.024;2024-03-02T06:15:09;50.30;36.57;69.30;;
58303;Laerm;44109;52.398;7.024;2024-03-02T06:17:37;49.70;37.55;64.81;;
58303;Laerm;44109;52.398;7.024;2024-03-02T06:20:07;49.21;37.80;61.05;;
58303;Laerm;44109;52.398;7.024;2024-03-02T06:22:38;50.74;38.75;60.91;;
58303;Laerm;44109;52.398;7.024;2024-03-02T06:25:07;49.02;35.49;61.84;;
58303;Laerm;44109;52.398;7.024;2024-03-02T06:27:35;48.29;39.21;69.97;;
58303;Laerm;44109;52.398;7.024;2024-03-02T06:30:05;50.03;40.33;62.71;;
58303;Laerm;44109;52.398;7.024;2024-03-02T06:32:33;52.64;39.26;67.80;;
58303;Laerm;44109;52.398;7.024;2024-03-02T06:35:01;53.14;38.69;72.52;;
58303;Laerm;44109;52.398;7.024;2024-03-02T06:37:30;52.98;39.45;77.53;;
58303;Laerm;44109;52.398;7.024;2024-03-02T06:40:01;49.29;37.77;64.48;;
58303;Laerm;44109;52.398;7.024;2024-03-02T06:42:29;49.94;37.90;67.52;;
58303;Laerm;44109;52.398;7.024;2024-03-02T06:45:00;52.19;39.55;69.26;;
58303;Laerm;44109;52.398;7.024;2024-03-02T06:47:27;52.65;39.07;68.76;;
58303;Laerm;44109;52.398;7.024;2024-03-02T06:49:55;52.99;39.45;68.43;;
58303;Laerm;44109;52.398;7.024;2024-03-02T06:52:25;50.96;39.06;67.05;;
58303;Laerm;44109;52.398;7.024;2024-03-02T06:54:53;52.02;37.63;66.74;;
58303;Laerm;44109;52.398;7.024;2024-03-02T06:57:25;49.84;39.63;65.48;;
58303;Laerm;44109;52.398;7.024;2024-03-02T06:59:53;50.87;38.25;65.26;;
58303;Laerm;44109;52.398;7.024;2024-03-02T07:02:25;50.45;40.81;62.21;;
58303;Laerm;44109;52.398;7.024;2024-03-02T07:04:53;50.07;38.92;64.57;;
58303;Laerm;44109;52.398;7.024;2024-03-02T07:07:21;48.84;38.11;69.05;;
58303;Laerm;44109;52.398;7.024;2024-03-02T07:09:49;48.92;37.69;65.84;;
58303;Laerm;44109;52.398;7.024;2024-03-02T07:12:17;51.84;38.16;79.04;;
58303;Laerm;44109;52.398;7.024;2024-03-02T07:14:46;53.40;40.12;70.68;;
58303;Laerm;44109;52.398;7.024;2024-03-02T07:17:45;53.14;38.74;68.39;;
58303;Laerm;44109;52.398;7.024;2024-03-02T07:20:12;53.21;38.50;70.85;;
58303;Laerm;44109;52.398;7.024;2024-03-02T07:22:40;54.44;40.66;70.59;;
58303;Laerm;44109;52.398;7.024;2024-03-02T07:25:08;50.78;38.46;66.14;;
58303;Laerm;44109;52.398;7.024;2024-03-02T07:27:36;51.81;38.43;67.40;;
58303;Laerm;44109;52.398;7.024;2024-03-02T07:30:08;53.14;39.35;72.05;;
58303;Laerm;44109;52.398;7.024;2024-03-02T07:32:37;52.34;40.29;66.68;;
58303;Laerm;44109;52.398;7.024;2024-03-02T07:35:07;51.82;40.82;66.71;;
58303;Laerm;44109;52.398;7.024;2024-03-02T07:37:35;52.02;39.50;67.54;;
58303;Laerm;44109;52.398;7.024;2024-03-02T07:40:05;51.92;39.82;67.88;;
58303;Laerm;44109;52.398;7.024;2024-03-02T07:42:38;50.25;39.62;67.20;;
58303;Laerm;44109;52.398;7.024;2024-03-02T07:45:08;49.07;39.60;59.65;;
58303;Laerm;44109;52.398;7.024;2024-03-02T07:47:37;49.48;38.79;61.68;;
58303;Laerm;44109;52.398;7.024;2024-03-02T07:50:07;50.28;38.30;68.31;;
58303;Laerm;44109;52.398;7.024;2024-03-02T07:52:35;49.14;39.31;66.04;;
58303;Laerm;44109;52.398;7.024;2024-03-02T07:55:04;50.59;37.97;64.67;;
58303;Laerm;44109;52.398;7.024;2024-03-02T07:57:32;48.04;38.41;64.31;;
58303;Laerm;44109;52.398;7.024;2024-03-02T08:00:04;48.85;38.26;65.85;;
58303;Laerm;44109;52.398;7.024;2024-03-02T08:02:34;50.69;38.82;67.03;;
58303;Laerm;44109;52.398;7.024;2024-03-02T08:05:02;53.28;39.59;67.20;;
58303;Laerm;44109;52.398;7.024;2024-03-02T08:07:30;56.47;40.09;77.44;;
58303;Laerm;44109;52.398;7.024;2024-03-02T08:09:58;54.75;41.28;71.30;;
58303;Laerm;44109;52.398;7.024;2024-03-02T08:12:26;54.15;40.24;72.12;;
58303;Laerm;44109;52.398;7.024;2024-03-02T08:14:54;52.64;41.27;66.50;;
58303;Laerm;44109;52.398;7.024;2024-03-02T08:17:22;55.42;40.25;70.62;;
58303;Laerm;44109;52.398;7.024;2024-03-02T08:19:51;57.69;38.41;73.89;;
58303;Laerm;44109;52.398;7.024;2024-03-02T08:22:20;56.23;40.85;72.27;;
58303;Laerm;44109;52.398;7.024;2024-03-02T08:24:49;55.07;40.56;71.78;;
58303;Laerm;44109;52.398;7.024;2024-03-02T08:27:17;55.21;39.51;71.91;;
58303;Laerm;44109;52.398;7.024;2024-03-02T08:29:46;53.43;41.18;70.02;;
58303;Laerm;44109;52.398;7.024;2024-03-02T08:32:16;56.15;42.17;76.42;;
58303;Laerm;44109;52.398;7.024;2024-03-02T08:34:44;56.21;38.90;72.34;;
58303;Laerm;44109;52.398;7.024;2024-03-02T08:37:15;51.40;40.31;64.06;;
58303;Laerm;44109;52.398;7.024;2024-03-02T08:39:45;53.54;40.30;68.11;;
58303;Laerm;44109;52.398;7.024;2024-03-02T08:42:13;52.83;38.15;69.04;;
58303;Laerm;44109;52.398;7.024;2024-03-02T08:44:41;53.09;39.83;70.74;;
58303;Laerm;44109;52.398;7.024;2024-03-02T08:47:10;52.10;39.74;73.73;;
58303;Laerm;44109;52.398;7.024;2024-03-02T08:49:39;53.48;37.50;72.50;;
58303;Laerm;44109;52.398;7.024;2024-03-02T08:52:07;57.51;39.08;78.19;;
58303;Laerm;44109;52.398;7.024;2024-03-02T08:54:39;57.48;42.20;77.07;;
58303;Laerm;44109;52.398;7.024;2024-03-02T08:57:07;51.03;38.65;65.68;;
58303;Laerm;44109;52.398;7.024;2024-03-02T08:59:35;51.28;38.44;74.01;;
58303;Laerm;44109;52.398;7.024;2024-03-02T09:02:04;51.26;39.06;65.54;;
58303;Laerm;44109;52.398;7.024;2024-03-02T09:04:32;55.38;40.73;80.55;;
58303;Laerm;44109;52.398;7.024;2024-03-02T09:07:00;52.37;38.68;66.98;;
58303;Laerm;44109;52.398;7.024;2024-03-02T09:09:28;53.60;41.15;68.75;;
58303;Laerm;44109;52.398;7.024;2024-03-02T09:11:57;53.23;39.34;69.52;;
58303;Laerm;44109;52.398;7.024;2024-03-02T09:14:25;52.09;39.73;66.00;;
58303;Laerm;44109;52.398;7.024;2024-03-02T09:16:53;50.75;39.39;65.72;;
58303;Laerm;44109;52.398;7.024;2024-03-02T09:19:21;50.87;40.01;71.81;;
58303;Laerm;44109;52.398;7.024;2024-03-02T09:21:48;51.41;39.16;72.92;;
58303;Laerm;44109;52.398;7.024;2024-03-02T09:24:16;51.03;40.54;67.82;;
58303;Laerm;44109;52.398;7.024;2024-03-02T09:26:44;53.31;37.77;74.72;;
58303;Laerm;44109;52.398;7.024;2024-03-02T09:29:14;50.95;40.78;67.34;;
58303;Laerm;44109;52.398;7.024;2024-03-02T09:31:42;51.36;39.24;66.55;;
58303;Laerm;44109;52.398;7.024;2024-03-02T09:34:10;52.04;41.38;66.57;;
58303;Laerm;44109;52.398;7.024;2024-03-02T09:36:38;53.08;40.80;71.47;;
58303;Laerm;44109;52.398;7.024;2024-03-02T09:39:07;52.67;42.85;65.74;;
58303;Laerm;44109;52.398;7.024;2024-03-02T09:41:36;52.45;42.92;66.35;;
58303;Laerm;44109;52.398;7.024;2024-03-02T09:44:06;49.55;41.53;57.92;;
58303;Laerm;44109;52.398;7.024;2024-03-02T09:46:35;50.07;41.02;63.37;;
58303;Laerm;44109;52.398;7.024;2024-03-02T09:49:03;50.96;42.19;67.08;;
58303;Laerm;44109;52.398;7.024;2024-03-02T09:51:33;51.69;42.59;65.61;;
58303;Laerm;44109;52.398;7.024;2024-03-02T09:54:01;52.42;40.35;66.13;;
58303;Laerm;44109;52.398;7.024;2024-03-02T09:56:29;52.69;39.94;65.72;;
58303;Laerm;44109;52.398;7.024;2024-03-02T09:58:57;51.89;42.26;68.51;;
58303;Laerm;44109;52.398;7.024;2024-03-02T10:01:25;51.15;43.26;66.83;;
58303;Laerm;44109;52.398;7.024;2024-03-02T10:03:57;51.01;40.24;65.99;;
58303;Laerm;44109;52.398;7.024;2024-03-02T10:06:28;50.76;42.18;70.04;;
58303;Laerm;44109;52.398;7.024;2024-03-02T10:08:57;50.96;43.04;66.52;;
58303;Laerm;44109;52.398;7.024;2024-03-02T10:11:29;53.81;40.30;74.88;;
58303;Laerm;44109;52.398;7.024;2024-03-02T10:14:08;54.49;43.29;72.33;;
58303;Laerm;44109;52.398;7.024;2024-03-02T10:16:38;54.29;44.84;72.16;;
58303;Laerm;44109;52.398;7.024;2024-03-02T10:19:18;51.63;43.34;68.01;;
58303;Laerm;44109;52.398;7.024;2024-03-02T10:21:46;50.48;41.22;68.72;;
58303;Laerm;44109;52.398;7.024;2024-03-02T10:24:17;50.13;42.45;58.80;;
58303;Laerm;44109;52.398;7.024;2024-03-02T10:26:45;50.50;42.24;65.08;;
58303;Laerm;44109;52.398;7.024;2024-03-02T10:29:13;51.78;44.32;72.56;;
58303;Laerm;44109;52.398;7.024;2024-03-02T10:31:43;52.08;45.93;69.13;;
58303;Laerm;44109;52.398;7.024;2024-03-02T10:34:13;51.34;41.16;68.81;;
58303;Laerm;44109;52.398;7.024;2024-03-02T10:36:44;51.31;42.95;69.04;;
58303;Laerm;44109;52.398;7.024;2024-03-02T10:39:14;53.96;41.96;75.08;;
58303;Laerm;44109;52.398;7.024;2024-03-02T10:41:43;52.04;43.68;63.16;;
58303;Laerm;44109;52.398;7.024;2024-03-02T10:44:14;50.43;42.49;61.66;;
58303;Laerm;44109;52.398;7.024;2024-03-02T10:46:45;50.24;41.23;58.65;;
58303;Laerm;44109;52.398;7.024;2024-03-02T10:49:14;51.16;44.32;60.57;;
58303;Laerm;44109;52.398;7.024;2024-03-02T10:51:45;49.17;41.42;57.70;;
58303;Laerm;44109;52.398;7.024;2024-03-02T10:54:13;50.83;42.83;63.67;;
58303;Laerm;44109;52.398;7.024;2024-03-02T10:56:48;51.49;42.38;67.00;;
58303;Laerm;44109;52.398;7.024;2024-03-02T10:59:27;52.47;41.51;69.37;;
58303;Laerm;44109;52.398;7.024;2024-03-02T11:01:59;50.43;42.26;68.97;;
58303;Laerm;44109;52.398;7.024;2024-03-02T11:04:29;50.08;42.52;64.98;;
58303;Laerm;44109;52.398;7.024;2024-03-02T11:07:05;49.81;41.86;60.27;;
58303;Laerm;44109;52.398;7.024;2024-03-02T11:09:41;49.92;42.07;65.33;;
58303;Laerm;44109;52.398;7.024;2024-03-02T11:12:19;49.34;40.49;63.18;;
58303;Laerm;44109;52.398;7.024;2024-03-02T11:14:47;50.28;41.45;70.20;;
58303;Laerm;44109;52.398;7.024;2024-03-02T11:17:16;51.54;39.29;66.60;;
58303;Laerm;44109;52.398;7.024;2024-03-02T11:19:46;53.15;43.05;68.28;;
58303;Laerm;44109;52.398;7.024;2024-03-02T11:22:17;50.99;40.15;65.64;;
58303;Laerm;44109;52.398;7.024;2024-03-02T11:24:50;52.44;41.75;68.77;;
58303;Laerm;44109;52.398;7.024;2024-03-02T11:28:03;54.19;42.52;71.35;;
58303;Laerm;44109;52.398;7.024;2024-03-02T11:30:54;52.45;41.18;68.58;;
58303;Laerm;44109;52.398;7.024;2024-03-02T11:33:26;53.08;43.15;69.68;;
58303;Laerm;44109;52.398;7.024;2024-03-02T11:35:57;55.04;42.28;81.99;;
58303;Laerm;44109;52.398;7.024;2024-03-02T11:38:33;50.85;41.44;68.57;;
58303;Laerm;44109;52.398;7.024;2024-03-02T11:41:06;54.27;43.05;75.46;;
58303;Laerm;44109;52.398;7.024;2024-03-02T11:43:38;57.04;44.77;76.08;;
58303;Laerm;44109;52.398;7.024;2024-03-02T11:46:07;53.46;43.26;68.94;;
58303;Laerm;44109;52.398;7.024;2024-03-02T11:48:36;53.56;40.32;69.94;;
58303;Laerm;44109;52.398;7.024;2024-03-02T11:51:04;52.48;40.59;70.58;;
58303;Laerm;44109;52.398;7.024;2024-03-02T11:53:35;50.24;42.16;66.96;;
58303;Laerm;44109;52.398;7.024;2024-03-02T11:56:10;49.89;42.12;63.97;;
58303;Laerm;44109;52.398;7.024;2024-03-02T11:58:41;50.58;41.85;69.63;;
58303;Laerm;44109;52.398;7.024;2024-03-02T12:01:11;51.88;41.29;68.62;;
58303;Laerm;44109;52.398;7.024;2024-03-02T12:03:40;53.46;39.18;67.70;;
58303;Laerm;44109;52.398;7.024;2024-03-02T12:06:09;53.12;42.18;68.24;;
58303;Laerm;44109;52.398;7.024;2024-03-02T12:08:39;54.00;44.09;70.73;;
58303;Laerm;44109;52.398;7.024;2024-03-02T12:11:14;55.47;43.17;75.32;;
58303;Laerm;44109;52.398;7.024;2024-03-02T12:13:52;50.82;39.87;65.10;;
58303;Laerm;44109;52.398;7.024;2024-03-02T12:16:25;54.01;41.94;71.02;;
58303;Laerm;44109;52.398;7.024;2024-03-02T12:18:54;51.44;42.48;66.06;;
58303;Laerm;44109;52.398;7.024;2024-03-02T12:21:23;50.22;42.01;58.13;;
58303;Laerm;44109;52.398;7.024;2024-03-02T12:23:53;50.81;43.85;61.86;;
58303;Laerm;44109;52.398;7.024;2024-03-02T12:26:23;54.59;45.36;73.27;;
58303;Laerm;44109;52.398;7.024;2024-03-02T12:28:52;57.97;41.97;76.03;;
58303;Laerm;44109;52.398;7.024;2024-03-02T12:31:21;57.51;45.02;77.83;;
58303;Laerm;44109;52.398;7.024;2024-03-02T12:33:49;53.45;44.57;82.96;;
58303;Laerm;44109;52.398;7.024;2024-03-02T12:36:17;53.82;42.59;70.37;;
58303;Laerm;44109;52.398;7.024;2024-03-02T12:38:47;52.24;41.59;68.03;;
58303;Laerm;44109;52.398;7.024;2024-03-02T12:41:19;52.46;45.47;64.51;;
58303;Laerm;44109;52.398;7.024;2024-03-02T12:43:47;56.01;43.82;72.14;;
58303;Laerm;44109;52.398;7.024;2024-03-02T12:46:17;54.95;42.95;73.56;;
58303;Laerm;44109;52.398;7.024;2024-03-02T12:48:46;50.65;43.15;59.50;;
58303;Laerm;44109;52.398;7.024;2024-03-02T12:51:17;49.73;41.80;66.30;;
58303;Laerm;44109;52.398;7.024;2024-03-02T12:53:45;51.14;42.51;71.04;;
58303;Laerm;44109;52.398;7.024;2024-03-02T12:56:13;51.74;43.88;64.68;;
58303;Laerm;44109;52.398;7.024;2024-03-02T12:58:46;51.68;42.96;64.66;;
58303;Laerm;44109;52.398;7.024;2024-03-02T13:01:15;53.20;38.31;75.13;;
58303;Laerm;44109;52.398;7.024;2024-03-02T13:03:45;51.91;42.08;71.43;;
58303;Laerm;44109;52.398;7.024;2024-03-02T13:06:17;53.76;44.05;65.95;;
58303;Laerm;44109;52.398;7.024;2024-03-02T13:08:46;53.29;45.29;68.05;;
58303;Laerm;44109;52.398;7.024;2024-03-02T13:11:16;52.29;44.74;63.68;;
58303;Laerm;44109;52.398;7.024;2024-03-02T13:13:45;52.32;44.43;68.49;;
58303;Laerm;44109;52.398;7.024;2024-03-02T13:16:13;51.42;42.83;69.91;;
58303;Laerm;44109;52.398;7.024;2024-03-02T13:18:44;52.03;44.06;66.80;;
58303;Laerm;44109;52.398;7.024;2024-03-02T13:21:12;52.36;41.69;68.20;;
58303;Laerm;44109;52.398;7.024;2024-03-02T13:23:40;52.34;43.82;64.08;;
58303;Laerm;44109;52.398;7.024;2024-03-02T13:26:08;52.77;43.93;65.46;;
58303;Laerm;44109;52.398;7.024;2024-03-02T13:28:39;52.46;46.69;65.47;;
58303;Laerm;44109;52.398;7.024;2024-03-02T13:31:08;57.22;44.58;75.97;;
58303;Laerm;44109;52.398;7.024;2024-03-02T13:33:37;53.55;45.37;71.11;;
58303;Laerm;44109;52.398;7.024;2024-03-02T13:36:08;51.34;42.61;65.48;;
58303;Laerm;44109;52.398;7.024;2024-03-02T13:38:37;50.86;41.47;64.37;;
58303;Laerm;44109;52.398;7.024;2024-03-02T13:41:05;50.97;44.34;64.85;;
58303;Laerm;44109;52.398;7.024;2024-03-02T13:43:34;51.96;43.75;63.72;;
58303;Laerm;44109;52.398;7.024;2024-03-02T13:46:05;51.59;44.87;64.14;;
58303;Laerm;44109;52.398;7.024;2024-03-02T13:48:34;50.51;39.98;64.17;;
58303;Laerm;44109;52.398;7.024;2024-03-02T13:51:03;51.58;40.61;72.59;;
58303;Laerm;44109;52.398;7.024;2024-03-02T13:53:31;55.96;41.29;76.26;;
58303;Laerm;44109;52.398;7.024;2024-03-02T13:55:59;52.51;44.51;67.82;;
58303;Laerm;44109;52.398;7.024;2024-03-02T13:58:28;52.10;43.87;69.07;;